createdAt,value
2018-10-19T00:00:20.897Z,646.70
2018-10-19T00:02:50.208Z,647.52
2018-10-19T00:05:19.599Z,660.65
2018-10-19T00:07:49.018Z,644.47
2018-10-19T00:10:18.387Z,616.65
2018-10-19T00:12:48.755Z,565.20
2018-10-19T00:15:18.185Z,548.80
2018-10-19T00:17:47.564Z,579.95
2018-10-19T00:20:16.914Z,601.60
2018-10-19T00:22:46.315Z,630.25
2018-10-19T00:25:15.636Z,623.67
2018-10-19T00:27:45.009Z,615.50
2018-10-19T00:30:14.396Z,622.98
2018-10-19T00:32:43.755Z,628.50
2018-10-19T00:35:13.134Z,626.63
2018-10-19T00:37:42.448Z,601.15
2018-10-19T00:40:11.894Z,619.55
2018-10-19T00:42:41.244Z,622.90
2018-10-19T00:45:10.769Z,677.10
2018-10-19T00:47:43.897Z,629.62
2018-10-19T00:50:13.253Z,669.60
2018-10-19T00:52:42.642Z,635.40
2018-10-19T00:55:11.978Z,648.85
2018-10-19T00:57:41.409Z,651.27
2018-10-19T01:00:10.832Z,680.35
2018-10-19T01:02:40.181Z,686.88
2018-10-19T01:05:09.565Z,678.83
2018-10-19T01:07:38.903Z,666.92
2018-10-19T01:10:09.287Z,667.42
2018-10-19T01:12:38.625Z,667.57
2018-10-19T01:15:08.991Z,659.08
2018-10-19T01:17:38.440Z,661.73
2018-10-19T01:20:07.840Z,666.48
2018-10-19T01:22:37.202Z,663.60
2018-10-19T01:25:07.094Z,671.70
2018-10-19T01:27:36.475Z,673.95
2018-10-19T01:30:07.193Z,671.55
2018-10-19T01:32:36.931Z,690.25
2018-10-19T01:35:08.222Z,666.50
2018-10-19T01:37:37.763Z,682.52
2018-10-19T01:40:09.042Z,666.98
2018-10-19T01:42:38.586Z,668.27
2018-10-19T01:45:09.859Z,667.92
2018-10-19T01:47:40.847Z,664.08
2018-10-19T01:50:11.043Z,674.93
2018-10-19T01:52:41.398Z,666.33
2018-10-19T01:55:10.793Z,667.40
2018-10-19T01:57:40.227Z,670.20
2018-10-19T02:00:09.648Z,686.50
2018-10-19T02:02:39.072Z,672.90
2018-10-19T02:05:08.562Z,687.75
2018-10-19T02:07:37.870Z,670.62
2018-10-19T02:10:07.451Z,671.85
2018-10-19T02:12:36.782Z,680.90
2018-10-19T02:15:08.176Z,677.30
2018-10-19T02:17:37.485Z,682.70
2018-10-19T02:20:07.855Z,643.55
2018-10-19T02:22:37.192Z,635.27
2018-10-19T02:25:06.698Z,580.42
2018-10-19T02:27:36.220Z,498.58
2018-10-19T02:30:06.707Z,539.55
2018-10-19T02:32:36.712Z,548.52
2018-10-19T02:35:06.258Z,566.60
2018-10-19T02:37:35.621Z,605.23
2018-10-19T02:40:06.082Z,615.23
2018-10-19T02:42:35.688Z,635.27
2018-10-19T02:45:05.576Z,624.55
2018-10-19T02:47:34.963Z,569.60
2018-10-19T02:50:07.469Z,579.60
2018-10-19T02:52:37.207Z,583.75
2018-10-19T02:55:07.535Z,616.83
2018-10-19T02:57:36.876Z,623.37
2018-10-19T03:00:08.254Z,608.02
2018-10-19T03:02:41.158Z,632.08
2018-10-19T03:05:10.862Z,622.37
2018-10-19T03:07:40.331Z,636.77
2018-10-19T03:10:10.218Z,628.48
2018-10-19T03:12:39.749Z,640.08
2018-10-19T03:15:09.748Z,647.77
2018-10-19T03:17:39.089Z,644.23
2018-10-19T03:20:09.090Z,667.33
2018-10-19T03:22:38.574Z,659.13
2018-10-19T03:25:08.821Z,642.25
2018-10-19T03:27:38.397Z,644.52
2018-10-19T03:30:08.302Z,630.55
2018-10-19T03:32:38.431Z,612.77
2018-10-19T03:35:07.947Z,628.65
2018-10-19T03:37:37.248Z,683.48
2018-10-19T03:40:06.662Z,648.47
2018-10-19T03:42:36.024Z,634.15
2018-10-19T03:45:06.291Z,647.83
2018-10-19T03:47:35.793Z,665.07
2018-10-19T03:50:05.312Z,660.08
2018-10-19T03:52:34.737Z,668.83
2018-10-19T03:55:04.160Z,666.95
2018-10-19T03:57:33.621Z,687.70
2018-10-19T04:00:03.009Z,694.13
2018-10-19T04:02:32.383Z,664.57
2018-10-19T04:05:01.707Z,687.65
2018-10-19T04:07:31.170Z,648.25
2018-10-19T04:10:00.555Z,653.83
2018-10-19T04:12:29.907Z,661.28
2018-10-19T04:14:59.325Z,649.42
2018-10-19T04:17:28.609Z,647.80
2018-10-19T04:19:57.954Z,657.70
2018-10-19T04:22:27.298Z,679.05
2018-10-19T04:24:56.679Z,668.70
2018-10-19T04:27:26.234Z,642.20
2018-10-19T04:29:55.587Z,653.37
2018-10-19T04:32:24.975Z,660.25
2018-10-19T04:34:54.412Z,676.40
2018-10-19T04:37:23.732Z,648.73
2018-10-19T04:39:53.106Z,663.40
2018-10-19T04:42:22.503Z,665.88
2018-10-19T04:44:51.861Z,684.27
2018-10-19T04:47:21.227Z,670.62
2018-10-19T04:49:50.629Z,642.27
2018-10-19T04:52:22.023Z,652.10
2018-10-19T04:54:51.374Z,629.40
2018-10-19T04:57:20.830Z,620.35
2018-10-19T04:59:50.068Z,627.25
2018-10-19T05:02:19.420Z,611.52
2018-10-19T05:04:49.008Z,614.42
2018-10-19T05:07:18.774Z,635.48
2018-10-19T05:09:48.258Z,612.17
2018-10-19T05:12:17.684Z,626.70
2018-10-19T05:14:47.069Z,606.47
2018-10-19T05:17:16.573Z,608.30
2018-10-19T05:19:45.907Z,561.17
2018-10-19T05:22:15.294Z,473.90
2018-10-19T05:24:44.700Z,460.60
2018-10-19T05:27:14.009Z,490.88
2018-10-19T05:29:43.375Z,480.20
2018-10-19T05:32:12.952Z,498.37
2018-10-19T05:34:42.209Z,480.37
2018-10-19T05:37:11.565Z,477.17
2018-10-19T05:39:41.002Z,485.60
2018-10-19T05:42:10.420Z,504.85
2018-10-19T05:44:39.814Z,500.48
2018-10-19T05:47:09.245Z,523.88
2018-10-19T05:49:38.513Z,545.05
2018-10-19T05:52:07.920Z,526.02
2018-10-19T05:54:37.227Z,508.02
2018-10-19T05:57:06.673Z,522.23
2018-10-19T05:59:37.026Z,529.77
2018-10-19T06:02:07.004Z,528.08
2018-10-19T06:04:36.336Z,519.80
2018-10-19T06:07:05.976Z,584.17
2018-10-19T06:09:35.303Z,572.23
2018-10-19T06:12:05.268Z,587.00
2018-10-19T06:14:34.631Z,583.35
2018-10-19T06:17:04.066Z,573.35
2018-10-19T06:19:33.409Z,594.00
2018-10-19T06:22:02.803Z,616.77
2018-10-19T06:24:32.184Z,596.33
2018-10-19T06:27:01.672Z,591.85
2018-10-19T06:29:31.023Z,615.30
2018-10-19T06:32:00.389Z,599.50
2018-10-19T06:34:29.728Z,620.02
2018-10-19T06:36:59.171Z,597.92
2018-10-19T06:39:28.553Z,598.17
2018-10-19T06:41:57.983Z,621.27
2018-10-19T06:44:27.372Z,631.23
2018-10-19T06:46:56.771Z,624.83
2018-10-19T06:49:26.811Z,629.42
2018-10-19T06:51:56.240Z,632.52
2018-10-19T06:54:25.635Z,644.55
2018-10-19T06:56:54.985Z,635.15
2018-10-19T07:01:12.337Z,612.50
2018-10-19T07:03:41.712Z,633.62
2018-10-19T07:06:11.286Z,607.85
2018-10-19T07:08:40.812Z,639.85
2018-10-19T07:11:10.251Z,660.65
2018-10-19T07:13:39.619Z,677.75
2018-10-19T07:16:09.056Z,659.92
2018-10-19T07:18:38.428Z,670.15
2018-10-19T07:21:07.806Z,652.62
2018-10-19T07:24:08.601Z,699.92
2018-10-19T07:26:37.974Z,730.90
2018-10-19T07:29:07.434Z,674.88
2018-10-19T07:31:36.782Z,635.75
2018-10-19T07:34:06.171Z,649.20
2018-10-19T07:36:35.791Z,628.55
2018-10-19T07:39:06.719Z,620.08
2018-10-19T07:41:36.248Z,644.45
2018-10-19T07:44:05.951Z,707.10
2018-10-19T07:46:35.404Z,641.67
2018-10-19T07:49:04.850Z,646.00
2018-10-19T07:51:34.189Z,673.40
2018-10-19T07:54:03.553Z,653.25
2018-10-19T07:56:32.939Z,642.05
2018-10-19T07:59:02.374Z,623.78
2018-10-19T08:01:32.759Z,673.52
2018-10-19T08:04:02.172Z,619.75
2018-10-19T08:06:31.877Z,617.45
2018-10-19T08:09:01.326Z,572.83
2018-10-19T08:11:30.743Z,614.10
2018-10-19T08:14:00.294Z,582.33
2018-10-19T08:16:29.697Z,609.00
2018-10-19T08:18:59.067Z,599.95
2018-10-19T08:21:28.493Z,580.53
2018-10-19T08:23:57.830Z,593.90
2018-10-19T08:26:27.324Z,604.02
2018-10-19T08:28:56.703Z,559.83
2018-10-19T08:31:26.089Z,546.42
2018-10-19T08:33:55.537Z,541.60
2018-10-19T08:36:24.937Z,555.27
2018-10-19T08:38:54.429Z,548.05
2018-10-19T08:41:23.884Z,530.33
2018-10-19T08:43:53.246Z,611.02
2018-10-19T08:46:27.802Z,623.73
2018-10-19T08:48:57.248Z,632.60
2018-10-19T08:51:26.588Z,664.10
2018-10-19T08:53:56.014Z,638.77
2018-10-19T08:56:25.367Z,651.73
2018-10-19T08:58:57.813Z,652.42
2018-10-19T09:01:27.140Z,647.35
2018-10-19T09:03:56.573Z,651.52
2018-10-19T09:06:25.942Z,658.12
2018-10-19T09:08:55.350Z,632.98
2018-10-19T09:11:25.091Z,622.87
2018-10-19T09:13:54.406Z,616.88
2018-10-19T09:16:23.785Z,655.70
2018-10-19T09:18:53.207Z,660.08
2018-10-19T09:21:22.525Z,663.33
2018-10-19T09:23:51.889Z,674.20
2018-10-19T09:26:22.076Z,686.75
2018-10-19T09:28:51.508Z,670.73
2018-10-19T09:31:20.914Z,763.80
2018-10-19T09:33:50.295Z,764.37
2018-10-19T09:36:19.740Z,744.13
2018-10-19T09:38:50.052Z,738.95
2018-10-19T09:41:19.507Z,754.70
2018-10-19T09:43:48.950Z,774.38
2018-10-19T09:46:18.291Z,730.03
2018-10-19T09:48:47.706Z,723.80
2018-10-19T09:51:18.068Z,746.08
2018-10-19T09:53:47.411Z,714.32
2018-10-19T09:56:16.883Z,710.05
2018-10-19T09:58:46.163Z,736.47
2018-10-19T10:01:20.850Z,721.27
2018-10-19T10:03:50.253Z,717.03
2018-10-19T10:06:19.690Z,714.67
2018-10-19T10:08:49.064Z,736.28
2018-10-19T10:11:18.689Z,717.87
2018-10-19T10:13:48.109Z,700.35
2018-10-19T10:16:17.539Z,777.97
2018-10-19T10:18:46.920Z,723.47
2018-10-19T10:21:16.314Z,725.80
2018-10-19T10:23:45.692Z,704.45
2018-10-19T10:26:15.410Z,706.92
2018-10-19T10:28:44.807Z,742.67
2018-10-19T10:31:14.351Z,739.85
2018-10-19T10:33:43.648Z,724.50
2018-10-19T10:36:13.053Z,739.87
2018-10-19T10:38:42.510Z,734.65
2018-10-19T10:41:11.850Z,739.95
2018-10-19T10:43:41.192Z,713.73
2018-10-19T10:46:10.674Z,756.63
2018-10-19T10:48:39.984Z,736.75
2018-10-19T10:51:10.346Z,761.38
2018-10-19T10:53:39.781Z,737.17
2018-10-19T10:56:09.117Z,748.47
2018-10-19T10:58:42.890Z,738.17
2018-10-19T11:01:12.390Z,729.35
2018-10-19T11:03:45.662Z,716.77
2018-10-19T11:06:15.052Z,676.25
2018-10-19T11:08:44.445Z,617.15
2018-10-19T11:11:15.095Z,535.60
2018-10-19T11:13:45.587Z,537.40
2018-10-19T11:16:16.036Z,573.90
2018-10-19T11:18:45.377Z,618.63
2018-10-19T11:21:14.740Z,644.02
2018-10-19T11:23:44.188Z,635.95
2018-10-19T11:26:13.576Z,627.20
2018-10-19T11:28:42.944Z,622.17
2018-10-19T11:31:12.434Z,684.73
2018-10-19T11:33:41.779Z,672.50
2018-10-19T11:36:11.171Z,695.25
2018-10-19T11:38:40.535Z,663.17
2018-10-19T11:41:09.947Z,672.05
2018-10-19T11:43:40.014Z,718.25
2018-10-19T11:46:10.453Z,672.57
2018-10-19T11:48:39.766Z,681.73
2018-10-19T11:51:09.136Z,673.58
2018-10-19T11:53:39.520Z,671.58
2018-10-19T11:56:08.905Z,660.92
2018-10-19T11:58:38.312Z,717.65
2018-10-19T12:01:07.687Z,683.23
2018-10-19T12:03:37.038Z,702.83
2018-10-19T12:06:06.846Z,687.92
2018-10-19T12:08:36.238Z,655.77
2018-10-19T12:11:05.944Z,650.00
2018-10-19T12:13:35.286Z,667.12
2018-10-19T12:16:05.465Z,647.17
2018-10-19T12:18:34.797Z,658.70
2018-10-19T12:21:04.280Z,667.50
2018-10-19T12:23:34.514Z,655.10
2018-10-19T12:26:03.988Z,670.08
2018-10-19T12:28:34.298Z,672.33
2018-10-19T12:31:03.763Z,657.38
2018-10-19T12:33:33.135Z,678.48
2018-10-19T12:36:02.713Z,675.22
2018-10-19T12:38:32.092Z,730.67
2018-10-19T12:41:01.464Z,648.70
2018-10-19T12:43:30.780Z,739.25
2018-10-19T12:46:20.677Z,707.15
2018-10-19T12:48:50.318Z,712.60
2018-10-19T12:51:22.056Z,697.35
2018-10-19T12:53:51.573Z,709.80
2018-10-19T12:56:21.502Z,683.20
2018-10-19T12:58:51.857Z,671.93
2018-10-19T13:01:22.131Z,696.58
2018-10-19T13:03:51.549Z,652.05
2018-10-19T13:06:20.973Z,658.85
2018-10-19T13:08:50.398Z,711.80
2018-10-19T13:11:22.194Z,712.17
2018-10-19T13:13:52.752Z,715.50
2018-10-19T13:16:22.397Z,675.02
2018-10-19T13:18:52.142Z,679.17
2018-10-19T13:21:21.805Z,656.55
2018-10-19T13:23:51.224Z,670.35
2018-10-19T13:26:20.613Z,648.85
2018-10-19T13:28:49.988Z,658.25
2018-10-19T13:31:19.368Z,666.52
2018-10-19T13:33:48.750Z,677.80
2018-10-19T13:36:18.151Z,651.77
2018-10-19T13:38:47.521Z,698.90
2018-10-19T13:41:16.918Z,653.02
2018-10-19T13:43:46.297Z,647.70
2018-10-19T13:46:15.752Z,726.87
2018-10-19T13:48:45.154Z,683.30
2018-10-19T13:51:14.653Z,656.30
2018-10-19T13:53:43.970Z,719.05
2018-10-19T13:56:13.335Z,697.33
2018-10-19T13:58:42.707Z,713.12
2018-10-19T14:01:12.188Z,723.60
2018-10-19T14:03:41.615Z,702.17
2018-10-19T14:06:11.073Z,670.55
2018-10-19T14:08:41.520Z,694.60
2018-10-19T14:11:10.934Z,714.42
2018-10-19T14:13:41.338Z,692.40
2018-10-19T14:16:10.761Z,690.42
2018-10-19T14:18:43.203Z,700.05
2018-10-19T14:21:12.776Z,702.45
2018-10-19T14:23:45.963Z,681.60
2018-10-19T14:26:15.362Z,664.15
2018-10-19T14:28:44.741Z,680.63
2018-10-19T14:31:14.158Z,697.17
2018-10-19T14:33:44.379Z,670.48
2018-10-19T14:36:13.671Z,663.08
2018-10-19T14:38:44.041Z,666.17
2018-10-19T14:41:14.251Z,680.43
2018-10-19T14:43:43.580Z,688.42
2018-10-19T14:46:13.108Z,681.23
2018-10-19T14:48:42.439Z,660.23
2018-10-19T14:51:12.074Z,674.65
2018-10-19T14:53:44.446Z,706.77
2018-10-19T14:56:13.845Z,677.00
2018-10-19T14:58:43.310Z,664.95
2018-10-19T15:01:12.875Z,672.80
2018-10-19T15:03:42.264Z,694.47
2018-10-19T15:06:11.692Z,678.80
2018-10-19T15:08:41.092Z,653.12
2018-10-19T15:11:10.871Z,685.25
2018-10-19T15:13:39.874Z,683.48
2018-10-19T15:16:09.257Z,701.58
2018-10-19T15:18:38.717Z,707.33
2018-10-19T15:21:09.169Z,685.05
2018-10-19T15:23:38.512Z,631.50
2018-10-19T15:26:07.913Z,622.13
2018-10-19T15:28:37.328Z,623.78
2018-10-19T15:31:06.748Z,621.48
2018-10-19T15:33:36.150Z,631.37
2018-10-19T15:36:05.985Z,645.17
2018-10-19T15:38:35.351Z,663.60
2018-10-19T15:41:05.117Z,626.02
2018-10-19T15:43:34.562Z,582.90
2018-10-19T15:46:03.967Z,588.72
2018-10-19T15:48:33.370Z,572.17
2018-10-19T15:51:02.855Z,565.17
2018-10-19T15:53:32.220Z,579.37
2018-10-19T15:56:01.686Z,584.98
2018-10-19T15:58:31.106Z,599.55
2018-10-19T16:01:00.481Z,576.42
2018-10-19T16:03:29.837Z,595.40
2018-10-19T16:05:59.278Z,585.23
2018-10-19T16:08:28.691Z,563.48
2018-10-19T16:10:58.298Z,588.67
2018-10-19T16:13:27.676Z,593.50
2018-10-19T16:15:57.064Z,588.00
2018-10-19T16:18:26.412Z,585.70
2018-10-19T16:20:55.800Z,591.73
2018-10-19T16:23:25.161Z,583.10
2018-10-19T16:25:54.605Z,619.60
2018-10-19T16:28:24.086Z,590.80
2018-10-19T16:30:53.371Z,630.35
2018-10-19T16:33:22.916Z,625.40
2018-10-19T16:35:52.411Z,621.50
2018-10-19T16:38:21.884Z,623.08
2018-10-19T16:40:51.564Z,616.88
2018-10-19T16:43:20.965Z,632.47
2018-10-19T16:45:50.295Z,628.77
2018-10-19T16:48:19.701Z,646.33
2018-10-19T16:50:49.075Z,643.77
2018-10-19T16:53:18.468Z,644.47
2018-10-19T16:55:47.896Z,677.50
2018-10-19T16:58:17.312Z,663.37
2018-10-19T17:00:46.617Z,697.10
2018-10-19T17:03:16.053Z,711.85
2018-10-19T17:05:45.391Z,680.63
2018-10-19T17:08:15.745Z,689.85
2018-10-19T17:10:45.123Z,676.27
2018-10-19T17:13:14.466Z,662.90
2018-10-19T17:15:43.832Z,686.83
2018-10-19T17:18:13.336Z,706.23
2018-10-19T17:20:42.620Z,695.55
2018-10-19T17:23:12.071Z,686.65
2018-10-19T17:25:42.489Z,675.50
2018-10-19T17:28:11.896Z,709.13
2018-10-19T17:30:41.395Z,723.05
2018-10-19T17:33:10.892Z,738.05
2018-10-19T17:35:41.212Z,743.80
2018-10-19T17:38:10.564Z,712.80
2018-10-19T17:40:40.034Z,768.37
2018-10-19T17:43:10.468Z,726.77
2018-10-19T17:45:39.776Z,751.10
2018-10-19T17:48:09.177Z,733.10
2018-10-19T17:50:38.564Z,734.17
2018-10-19T17:53:08.060Z,744.52
2018-10-19T17:55:38.374Z,737.08
2018-10-19T17:58:07.779Z,750.65
2018-10-19T18:00:37.195Z,751.25
2018-10-19T18:03:06.692Z,741.52
2018-10-19T18:05:37.939Z,760.63
2018-10-19T18:08:10.479Z,746.83
2018-10-19T18:10:39.864Z,761.12
2018-10-19T18:13:09.245Z,749.50
2018-10-19T18:15:38.724Z,757.92
2018-10-19T18:18:08.057Z,746.15
2018-10-19T18:20:37.420Z,740.47
2018-10-19T18:23:06.948Z,751.20
2018-10-19T18:25:37.216Z,739.70
2018-10-19T18:28:06.619Z,739.48
2018-10-19T18:30:36.080Z,750.80
2018-10-19T18:33:05.848Z,762.70
2018-10-19T18:35:35.240Z,776.92
2018-10-19T18:38:04.619Z,749.97
2018-10-19T18:40:33.951Z,773.15
2018-10-19T18:43:03.369Z,760.87
2018-10-19T18:45:32.809Z,774.58
2018-10-19T18:48:04.427Z,767.92
2018-10-19T18:50:33.889Z,745.05
2018-10-19T18:53:03.345Z,732.85
2018-10-19T18:55:32.679Z,737.25
2018-10-19T18:58:02.084Z,748.10
2018-10-19T19:00:31.496Z,752.37
2018-10-19T19:03:00.883Z,720.42
2018-10-19T19:05:30.250Z,762.67
2018-10-19T19:07:59.659Z,763.15
2018-10-19T19:10:29.073Z,752.02
2018-10-19T19:13:03.915Z,740.83
2018-10-19T19:15:33.280Z,755.58
2018-10-19T19:18:02.680Z,777.67
2018-10-19T19:20:32.108Z,756.17
2018-10-19T19:23:01.526Z,741.70
2018-10-19T19:25:36.177Z,760.75
2018-10-19T19:28:09.249Z,753.08
2018-10-19T19:30:38.730Z,760.30
2018-10-19T19:33:14.464Z,768.17
2018-10-19T19:35:43.904Z,763.70
2018-10-19T19:38:13.314Z,765.98
2018-10-19T19:40:48.142Z,777.73
2018-10-19T19:43:17.529Z,755.58
2018-10-19T19:45:46.943Z,764.00
2018-10-19T19:48:21.738Z,757.98
2018-10-19T19:50:51.115Z,747.75
2018-10-19T19:53:20.480Z,746.45
2018-10-19T19:55:49.851Z,742.80
2018-10-19T19:58:22.572Z,753.08
2018-10-19T20:00:51.979Z,758.98
2018-10-19T20:03:21.323Z,770.17
2018-10-19T20:05:50.728Z,755.63
2018-10-19T20:08:20.114Z,769.87
2018-10-19T20:10:50.514Z,749.10
2018-10-19T20:13:19.950Z,756.17
2018-10-19T20:15:49.332Z,751.67
2018-10-19T20:18:18.721Z,776.13
2018-10-19T20:20:48.039Z,734.45
2018-10-19T20:23:17.407Z,723.15
2018-10-19T20:25:46.771Z,728.20
2018-10-19T20:28:16.161Z,706.67
2018-10-19T20:30:46.584Z,716.15
2018-10-19T20:33:16.041Z,709.22
2018-10-19T20:35:46.341Z,722.92
2018-10-19T20:38:16.853Z,709.08
2018-10-19T20:40:46.205Z,695.33
2018-10-19T20:43:15.523Z,717.30
2018-10-19T20:45:44.910Z,723.70
2018-10-19T20:48:14.280Z,724.95
2018-10-19T20:50:43.629Z,729.83
2018-10-19T20:53:14.057Z,742.27
2018-10-19T20:55:43.499Z,710.45
2018-10-19T20:58:12.887Z,718.65
2018-10-19T21:00:42.258Z,730.25
2018-10-19T21:03:11.633Z,743.80
2018-10-19T21:05:40.982Z,728.80
2018-10-19T21:08:10.400Z,727.85
2018-10-19T21:10:59.662Z,735.58
2018-10-19T21:13:29.083Z,741.67
2018-10-19T21:15:58.402Z,746.45
2018-10-19T21:18:27.785Z,744.25
2018-10-19T21:20:57.135Z,707.73
2018-10-19T21:23:26.537Z,724.08
2018-10-19T21:25:56.066Z,718.33
2018-10-19T21:28:25.408Z,756.80
2018-10-19T21:30:54.755Z,746.22
2018-10-19T21:33:24.178Z,715.77
2018-10-19T21:35:53.596Z,724.88
2018-10-19T21:38:25.011Z,715.98
2018-10-19T21:40:54.466Z,729.62
2018-10-19T21:43:23.837Z,722.57
2018-10-19T21:45:57.071Z,729.83
2018-10-19T21:48:26.431Z,739.78
2018-10-19T21:50:55.816Z,726.75
2018-10-19T21:53:25.180Z,723.75
2018-10-19T21:55:54.693Z,743.52
2018-10-19T21:58:24.033Z,754.53
2018-10-19T22:00:53.407Z,718.00
2018-10-19T22:03:23.814Z,729.95
2018-10-19T22:05:53.242Z,736.52
2018-10-19T22:08:22.696Z,733.40
2018-10-19T22:10:52.097Z,718.75
2018-10-19T22:13:21.470Z,703.77
2018-10-19T22:15:50.824Z,713.65
2018-10-19T22:18:20.186Z,743.27
2018-10-19T22:20:49.560Z,750.42
2018-10-19T22:23:19.068Z,754.85
2018-10-19T22:25:48.323Z,711.30
2018-10-19T22:28:17.717Z,721.67
2018-10-19T22:30:47.225Z,736.83
2018-10-19T22:33:16.634Z,740.38
2018-10-19T22:35:46.034Z,763.87
2018-10-19T22:38:15.549Z,764.23
2018-10-19T22:40:44.897Z,752.78
2018-10-19T22:43:14.382Z,767.03
2018-10-19T22:45:43.688Z,745.30
2018-10-19T22:48:13.079Z,761.67
2018-10-19T22:50:42.456Z,766.12
2018-10-19T22:53:11.882Z,747.25
2018-10-19T22:55:41.248Z,764.63
2018-10-19T22:58:10.653Z,770.97
2018-10-19T23:00:40.008Z,749.88
2018-10-19T23:03:10.571Z,783.27
2018-10-19T23:05:40.068Z,779.50
2018-10-19T23:08:09.441Z,760.23
2018-10-19T23:10:38.799Z,759.10
2018-10-19T23:13:08.274Z,755.37
2018-10-19T23:15:37.613Z,738.90
2018-10-19T23:18:07.964Z,723.30
2018-10-19T23:20:37.478Z,752.00
2018-10-19T23:23:06.906Z,754.48
2018-10-19T23:25:36.255Z,715.83
2018-10-19T23:28:06.243Z,732.38
2018-10-19T23:30:35.622Z,721.05
2018-10-19T23:33:06.400Z,729.60
2018-10-19T23:35:35.920Z,755.08
2018-10-19T23:38:05.827Z,796.42
2018-10-19T23:40:35.252Z,771.27
2018-10-19T23:43:04.691Z,769.02
2018-10-19T23:45:34.061Z,760.05
2018-10-19T23:48:04.053Z,751.42
2018-10-19T23:50:33.433Z,745.12
2018-10-19T23:53:02.879Z,752.23
2018-10-19T23:55:32.212Z,733.07
2018-10-19T23:58:01.643Z,750.75
